Pineville, Kentucky
Current Conditions -  °F | °C
As of 10:15 PM on Thursday 27 Nov 2014 (Local Time) from KI35 Reporting Station
Overcast Overcast  
Wind Chill: 30°   Ceiling: 2000
Heat Index: 30°   Visibility: 7mi
Dew Point: 25°   Wind: 3mph
Humidity: 80%   Direction: 260°W
Pressure: 30.35"   Gusts: NA
Location:  36.76°N, 83.69°W
Report Text: KI35 280315Z AUTO 26003KT 7SM BKN020 OVC044 M01/M04 A3035 RMK AO1
Loading
Personal Weather Stations






























Interactive Weather Map New forecast layout! Learn more

10-Day Weather Forecast

Advertisements
Track Severe Weather on mobile